This is the latest recevied weather packets stored in our database for station/object W4MSI. If no packets are shown the sender has not sent any weather packets the latest 10 day(s).
| Time | Temp. | Humidity | Pressure | Rain* | Wind** | Luminosity | Snow |
|---|---|---|---|---|---|---|---|
| 1777770513 | 7.78° C | 94% | 1018.2 hPa | 0 mm | - | 0 W/m² | - |
| 1777770210 | 8.33° C | 93% | 1018.2 hPa | 0 mm | - | 0 W/m² | - |
| 1777769907 | 8.33° C | 93% | 1018.3 hPa | 0 mm | - | 0 W/m² | - |
| 1777769604 | 8.33° C | 92% | 1018.3 hPa | 0 mm | - | 0 W/m² | - |
| 1777769300 | 8.89° C | 92% | 1018.2 hPa | 0 mm | - | 1 W/m² | - |
| 1777768998 | 8.89° C | 91% | 1018.2 hPa | 0 mm | - | 2 W/m² | - |
| 1777768696 | 8.89° C | 91% | 1018.3 hPa | 0 mm | - | 3 W/m² | - |
| 1777768392 | 9.44° C | 90% | 1018 hPa | 0 mm | - | 6 W/m² | - |
| 1777768089 | 9.44° C | 90% | 1018 hPa | 0 mm | - | 8 W/m² | - |
| 1777767787 | 9.44° C | 89% | 1018.1 hPa | 0 mm | - | 12 W/m² | - |
| 1777767483 | 10° C | 88% | 1017.9 hPa | 0 mm | - | 16 W/m² | - |
| 1777767179 | 10° C | 88% | 1017.7 hPa | 0 mm | - | 19 W/m² | - |
| 1777766877 | 10.56° C | 87% | 1017.8 hPa | 0 mm | - | 24 W/m² | - |
| 1777766574 | 10.56° C | 86% | 1017.8 hPa | 0 mm | - | 29 W/m² | - |
| 1777766271 | 10.56° C | 85% | 1017.7 hPa | 0 mm | - | 34 W/m² | - |
| 1777765969 | 10.56° C | 86% | 1017.5 hPa | 0 mm | - | 37 W/m² | - |
| 1777765664 | 11.11° C | 84% | 1017.4 hPa | 0 mm | - | 44 W/m² | - |
| 1777765362 | 11.11° C | 83% | 1017.4 hPa | 0 mm | - | 59 W/m² | - |
| 1777765058 | 11.67° C | 83% | 1017.4 hPa | 0 mm | - | 71 W/m² | - |
| 1777764755 | 11.11° C | 88% | 1017.4 hPa | 0 mm | - | 102 W/m² | - |
| 1777764450 | 10.56° C | 89% | 1017.4 hPa | 0 mm | - | 94 W/m² | - |
| 1777764148 | 10.56° C | 89% | 1017.3 hPa | 0 mm | - | 69 W/m² | - |
| 1777763844 | 10.56° C | 91% | 1017.2 hPa | 0 mm | - | 63 W/m² | - |
| 1777763542 | 10° C | 91% | 1017.2 hPa | 0 mm | - | 57 W/m² | - |
| 1777763241 | 10° C | 91% | 1017 hPa | 0 mm | - | 57 W/m² | - |
* Rain latest hour (hover to see other rain measurements)
** Current wind speed in m/s (hover to see current wind gust speed)